sensor_id;sensor_type;location;lat;lon;timestamp;pressure;altitude;pressure_sealevel;temperature;humidity
76551;BME280;68768;53.156;18.164;2023-07-31T00:02:00;100637.55;;;19.03;65.70
76551;BME280;68768;53.156;18.164;2023-07-31T00:04:27;100638.42;;;18.96;66.10
76551;BME280;68768;53.156;18.164;2023-07-31T00:06:54;100641.80;;;18.90;65.86
76551;BME280;68768;53.156;18.164;2023-07-31T00:09:21;100640.27;;;18.89;65.91
76551;BME280;68768;53.156;18.164;2023-07-31T00:11:49;100641.85;;;18.87;65.96
76551;BME280;68768;53.156;18.164;2023-07-31T00:14:16;100642.59;;;18.84;65.92
76551;BME280;68768;53.156;18.164;2023-07-31T00:16:43;100644.62;;;18.81;65.91
76551;BME280;68768;53.156;18.164;2023-07-31T00:19:10;100641.23;;;18.81;65.96
76551;BME280;68768;53.156;18.164;2023-07-31T00:21:37;100638.40;;;18.80;66.03
76551;BME280;68768;53.156;18.164;2023-07-31T00:24:04;100642.06;;;18.79;65.82
76551;BME280;68768;53.156;18.164;2023-07-31T00:26:31;100650.14;;;18.77;65.95
76551;BME280;68768;53.156;18.164;2023-07-31T00:28:59;100648.15;;;18.74;65.94
76551;BME280;68768;53.156;18.164;2023-07-31T00:31:26;100647.83;;;18.71;66.17
76551;BME280;68768;53.156;18.164;2023-07-31T00:33:53;100640.03;;;18.70;66.13
76551;BME280;68768;53.156;18.164;2023-07-31T00:36:20;100637.70;;;18.70;66.14
76551;BME280;68768;53.156;18.164;2023-07-31T00:38:48;100640.87;;;18.68;66.07
76551;BME280;68768;53.156;18.164;2023-07-31T00:41:16;100643.02;;;18.68;66.30
76551;BME280;68768;53.156;18.164;2023-07-31T00:43:42;100647.68;;;18.66;66.28
76551;BME280;68768;53.156;18.164;2023-07-31T00:46:10;100652.86;;;18.67;66.23
76551;BME280;68768;53.156;18.164;2023-07-31T00:48:37;100654.92;;;18.63;66.42
76551;BME280;68768;53.156;18.164;2023-07-31T00:51:05;100653.33;;;18.63;66.24
76551;BME280;68768;53.156;18.164;2023-07-31T00:53:32;100656.83;;;18.62;66.60
76551;BME280;68768;53.156;18.164;2023-07-31T00:56:00;100657.65;;;18.60;66.47
76551;BME280;68768;53.156;18.164;2023-07-31T00:58:27;100661.25;;;18.60;66.53
76551;BME280;68768;53.156;18.164;2023-07-31T01:00:54;100659.85;;;18.60;66.73
76551;BME280;68768;53.156;18.164;2023-07-31T01:03:21;100661.47;;;18.57;67.04
76551;BME280;68768;53.156;18.164;2023-07-31T01:09:02;100660.06;;;18.51;67.80
76551;BME280;68768;53.156;18.164;2023-07-31T01:11:33;100661.80;;;18.45;68.09
76551;BME280;68768;53.156;18.164;2023-07-31T01:14:01;100660.95;;;18.42;68.43
76551;BME280;68768;53.156;18.164;2023-07-31T01:16:28;100669.98;;;18.38;68.56
76551;BME280;68768;53.156;18.164;2023-07-31T01:18:56;100663.47;;;18.34;68.74
76551;BME280;68768;53.156;18.164;2023-07-31T01:24:08;100670.17;;;18.25;68.89
76551;BME280;68768;53.156;18.164;2023-07-31T01:26:39;100670.66;;;18.21;69.43
76551;BME280;68768;53.156;18.164;2023-07-31T01:29:32;100666.77;;;18.15;69.29
76551;BME280;68768;53.156;18.164;2023-07-31T01:32:03;100667.41;;;18.11;69.46
76551;BME280;68768;53.156;18.164;2023-07-31T01:34:32;100669.98;;;18.08;69.66
76551;BME280;68768;53.156;18.164;2023-07-31T01:36:59;100670.58;;;18.04;69.86
76551;BME280;68768;53.156;18.164;2023-07-31T01:39:26;100667.55;;;18.02;69.86
76551;BME280;68768;53.156;18.164;2023-07-31T01:41:53;100669.29;;;18.00;69.92
76551;BME280;68768;53.156;18.164;2023-07-31T01:44:21;100665.44;;;17.98;70.29
76551;BME280;68768;53.156;18.164;2023-07-31T01:46:48;100664.62;;;17.97;70.14
76551;BME280;68768;53.156;18.164;2023-07-31T01:49:15;100663.11;;;17.96;70.15
76551;BME280;68768;53.156;18.164;2023-07-31T01:51:42;100661.12;;;17.96;70.17
76551;BME280;68768;53.156;18.164;2023-07-31T01:54:09;100658.66;;;17.95;70.23
76551;BME280;68768;53.156;18.164;2023-07-31T01:56:36;100659.94;;;17.95;70.22
76551;BME280;68768;53.156;18.164;2023-07-31T01:59:03;100660.86;;;17.95;70.21
76551;BME280;68768;53.156;18.164;2023-07-31T02:01:30;100667.06;;;17.93;70.25
76551;BME280;68768;53.156;18.164;2023-07-31T02:03:57;100666.50;;;17.91;70.35
76551;BME280;68768;53.156;18.164;2023-07-31T02:06:24;100663.76;;;17.89;70.39
76551;BME280;68768;53.156;18.164;2023-07-31T02:08:51;100664.07;;;17.87;70.29
76551;BME280;68768;53.156;18.164;2023-07-31T02:11:18;100663.23;;;17.87;70.33
76551;BME280;68768;53.156;18.164;2023-07-31T02:13:45;100668.00;;;17.85;70.15
76551;BME280;68768;53.156;18.164;2023-07-31T02:16:12;100668.13;;;17.83;70.22
76551;BME280;68768;53.156;18.164;2023-07-31T02:18:40;100663.73;;;17.82;70.23
76551;BME280;68768;53.156;18.164;2023-07-31T02:21:07;100664.77;;;17.80;70.27
76551;BME280;68768;53.156;18.164;2023-07-31T02:23:34;100670.90;;;17.77;70.20
76551;BME280;68768;53.156;18.164;2023-07-31T02:26:01;100668.74;;;17.74;70.40
76551;BME280;68768;53.156;18.164;2023-07-31T02:28:28;100664.86;;;17.71;70.27
76551;BME280;68768;53.156;18.164;2023-07-31T02:30:55;100666.95;;;17.66;70.42
76551;BME280;68768;53.156;18.164;2023-07-31T02:33:22;100673.84;;;17.62;70.40
76551;BME280;68768;53.156;18.164;2023-07-31T02:35:49;100671.96;;;17.58;70.59
76551;BME280;68768;53.156;18.164;2023-07-31T02:38:16;100669.42;;;17.56;70.74
76551;BME280;68768;53.156;18.164;2023-07-31T02:40:43;100673.70;;;17.48;70.76
76551;BME280;68768;53.156;18.164;2023-07-31T02:43:10;100674.70;;;17.42;70.73
76551;BME280;68768;53.156;18.164;2023-07-31T02:45:37;100677.92;;;17.37;70.98
76551;BME280;68768;53.156;18.164;2023-07-31T02:48:04;100681.23;;;17.33;71.11
76551;BME280;68768;53.156;18.164;2023-07-31T02:50:31;100680.11;;;17.33;71.23
76551;BME280;68768;53.156;18.164;2023-07-31T02:52:59;100679.73;;;17.36;71.25
76551;BME280;68768;53.156;18.164;2023-07-31T02:55:26;100682.95;;;17.37;71.44
76551;BME280;68768;53.156;18.164;2023-07-31T02:57:53;100677.05;;;17.34;71.36
76551;BME280;68768;53.156;18.164;2023-07-31T03:00:21;100676.05;;;17.35;71.38
76551;BME280;68768;53.156;18.164;2023-07-31T03:02:48;100680.09;;;17.36;71.31
76551;BME280;68768;53.156;18.164;2023-07-31T03:05:15;100684.42;;;17.36;71.17
76551;BME280;68768;53.156;18.164;2023-07-31T03:07:42;100680.21;;;17.35;71.23
76551;BME280;68768;53.156;18.164;2023-07-31T03:10:09;100674.86;;;17.31;71.32
76551;BME280;68768;53.156;18.164;2023-07-31T03:12:36;100679.13;;;17.29;71.37
76551;BME280;68768;53.156;18.164;2023-07-31T03:15:04;100676.70;;;17.28;71.29
76551;BME280;68768;53.156;18.164;2023-07-31T03:17:31;100677.83;;;17.27;71.37
76551;BME280;68768;53.156;18.164;2023-07-31T03:19:58;100678.21;;;17.27;71.36
76551;BME280;68768;53.156;18.164;2023-07-31T03:22:25;100680.94;;;17.26;71.27
76551;BME280;68768;53.156;18.164;2023-07-31T03:24:52;100687.61;;;17.26;71.51
76551;BME280;68768;53.156;18.164;2023-07-31T03:27:19;100691.23;;;17.25;71.35
76551;BME280;68768;53.156;18.164;2023-07-31T03:29:46;100698.30;;;17.24;71.28
76551;BME280;68768;53.156;18.164;2023-07-31T03:32:13;100697.23;;;17.24;71.48
76551;BME280;68768;53.156;18.164;2023-07-31T03:34:40;100694.86;;;17.25;71.52
76551;BME280;68768;53.156;18.164;2023-07-31T03:37:07;100696.45;;;17.28;71.57
76551;BME280;68768;53.156;18.164;2023-07-31T03:39:36;100697.30;;;17.31;71.57
76551;BME280;68768;53.156;18.164;2023-07-31T03:42:03;100696.30;;;17.35;71.36
76551;BME280;68768;53.156;18.164;2023-07-31T03:44:30;100698.73;;;17.42;71.54
76551;BME280;68768;53.156;18.164;2023-07-31T03:46:57;100702.58;;;17.51;71.47
76551;BME280;68768;53.156;18.164;2023-07-31T03:49:24;100704.76;;;17.59;71.40
76551;BME280;68768;53.156;18.164;2023-07-31T03:51:51;100708.09;;;17.63;71.25
76551;BME280;68768;53.156;18.164;2023-07-31T03:54:18;100707.75;;;17.66;71.31
76551;BME280;68768;53.156;18.164;2023-07-31T03:56:45;100706.34;;;17.68;71.11
76551;BME280;68768;53.156;18.164;2023-07-31T03:59:12;100709.43;;;17.70;71.04
76551;BME280;68768;53.156;18.164;2023-07-31T04:01:39;100707.29;;;17.73;70.95
76551;BME280;68768;53.156;18.164;2023-07-31T04:04:06;100707.52;;;17.80;70.80
76551;BME280;68768;53.156;18.164;2023-07-31T04:06:33;100708.10;;;17.89;70.65
76551;BME280;68768;53.156;18.164;2023-07-31T04:09:02;100709.27;;;18.03;70.39
76551;BME280;68768;53.156;18.164;2023-07-31T04:11:29;100713.58;;;18.19;70.28
76551;BME280;68768;53.156;18.164;2023-07-31T04:13:56;100709.72;;;18.35;69.95
76551;BME280;68768;53.156;18.164;2023-07-31T04:16:23;100707.75;;;18.48;69.54
76551;BME280;68768;53.156;18.164;2023-07-31T04:18:50;100703.75;;;18.59;69.45
76551;BME280;68768;53.156;18.164;2023-07-31T04:21:18;100704.14;;;18.63;68.81
76551;BME280;68768;53.156;18.164;2023-07-31T04:23:45;100699.82;;;18.59;68.74
76551;BME280;68768;53.156;18.164;2023-07-31T04:26:12;100700.02;;;18.58;68.38
76551;BME280;68768;53.156;18.164;2023-07-31T04:28:39;100696.75;;;18.59;68.35
76551;BME280;68768;53.156;18.164;2023-07-31T04:31:05;100701.39;;;18.57;68.26
76551;BME280;68768;53.156;18.164;2023-07-31T04:33:33;100698.42;;;18.55;68.21
76551;BME280;68768;53.156;18.164;2023-07-31T04:36:00;100693.55;;;18.53;67.59
76551;BME280;68768;53.156;18.164;2023-07-31T04:38:27;100693.13;;;18.44;67.62
76551;BME280;68768;53.156;18.164;2023-07-31T04:40:54;100697.64;;;18.38;67.67
76551;BME280;68768;53.156;18.164;2023-07-31T04:43:21;100691.71;;;18.44;67.80
76551;BME280;68768;53.156;18.164;2023-07-31T04:45:49;100693.02;;;18.55;67.75
76551;BME280;68768;53.156;18.164;2023-07-31T04:48:17;100697.81;;;18.71;67.55
76551;BME280;68768;53.156;18.164;2023-07-31T04:50:44;100698.33;;;18.89;67.18
76551;BME280;68768;53.156;18.164;2023-07-31T04:53:11;100697.47;;;19.13;66.79
76551;BME280;68768;53.156;18.164;2023-07-31T04:55:38;100701.34;;;19.50;66.36
76551;BME280;68768;53.156;18.164;2023-07-31T04:58:05;100705.38;;;19.89;65.59
76551;BME280;68768;53.156;18.164;2023-07-31T05:00:32;100707.47;;;20.27;64.83
76551;BME280;68768;53.156;18.164;2023-07-31T05:02:59;100707.02;;;20.69;64.24
76551;BME280;68768;53.156;18.164;2023-07-31T05:05:26;100707.59;;;21.00;63.00
76551;BME280;68768;53.156;18.164;2023-07-31T05:07:53;100699.85;;;21.43;62.75
76551;BME280;68768;53.156;18.164;2023-07-31T05:10:21;100693.48;;;21.85;61.74
76551;BME280;68768;53.156;18.164;2023-07-31T05:12:48;100698.62;;;22.21;61.15
76551;BME280;68768;53.156;18.164;2023-07-31T05:15:15;100702.39;;;22.42;60.86
76551;BME280;68768;53.156;18.164;2023-07-31T05:17:42;100705.45;;;22.48;59.84
76551;BME280;68768;53.156;18.164;2023-07-31T05:20:10;100700.77;;;22.54;59.70
76551;BME280;68768;53.156;18.164;2023-07-31T05:22:37;100697.73;;;22.63;59.47
76551;BME280;68768;53.156;18.164;2023-07-31T05:25:04;100700.80;;;22.71;58.69
76551;BME280;68768;53.156;18.164;2023-07-31T05:27:32;100703.59;;;22.83;58.94
76551;BME280;68768;53.156;18.164;2023-07-31T05:29:59;100703.69;;;22.84;55.85
76551;BME280;68768;53.156;18.164;2023-07-31T05:32:26;100707.23;;;22.72;57.34
76551;BME280;68768;53.156;18.164;2023-07-31T05:34:53;100706.30;;;22.72;57.26
76551;BME280;68768;53.156;18.164;2023-07-31T05:37:22;100704.36;;;22.91;56.46
76551;BME280;68768;53.156;18.164;2023-07-31T05:39:49;100705.52;;;23.24;55.91
76551;BME280;68768;53.156;18.164;2023-07-31T05:42:16;100701.60;;;23.55;55.75
76551;BME280;68768;53.156;18.164;2023-07-31T05:44:43;100701.30;;;23.90;54.83
76551;BME280;68768;53.156;18.164;2023-07-31T05:47:10;100696.11;;;24.32;54.68
76551;BME280;68768;53.156;18.164;2023-07-31T05:49:37;100691.83;;;24.73;54.02
76551;BME280;68768;53.156;18.164;2023-07-31T05:52:04;100691.90;;;25.10;53.16
76551;BME280;68768;53.156;18.164;2023-07-31T05:54:32;100687.60;;;25.42;52.39
76551;BME280;68768;53.156;18.164;2023-07-31T05:57:00;100682.34;;;25.69;51.72
76551;BME280;68768;53.156;18.164;2023-07-31T05:59:27;100682.14;;;25.88;50.23
76551;BME280;68768;53.156;18.164;2023-07-31T06:01:54;100681.85;;;26.07;50.01
76551;BME280;68768;53.156;18.164;2023-07-31T06:04:22;100682.04;;;26.35;49.84
76551;BME280;68768;53.156;18.164;2023-07-31T06:06:51;100687.00;;;26.67;48.75
76551;BME280;68768;53.156;18.164;2023-07-31T06:09:18;100688.08;;;26.85;48.91
76551;BME280;68768;53.156;18.164;2023-07-31T06:11:45;100689.29;;;27.06;48.28
76551;BME280;68768;53.156;18.164;2023-07-31T06:14:12;100692.29;;;27.19;47.83
76551;BME280;68768;53.156;18.164;2023-07-31T06:16:39;100687.93;;;27.31;46.87
76551;BME280;68768;53.156;18.164;2023-07-31T06:19:06;100689.23;;;27.29;46.63
76551;BME280;68768;53.156;18.164;2023-07-31T06:21:33;100687.69;;;27.51;47.05
76551;BME280;68768;53.156;18.164;2023-07-31T06:24:01;100690.36;;;27.68;45.44
76551;BME280;68768;53.156;18.164;2023-07-31T06:26:28;100694.39;;;27.86;45.45
76551;BME280;68768;53.156;18.164;2023-07-31T06:28:55;100693.30;;;27.89;45.01
76551;BME280;68768;53.156;18.164;2023-07-31T06:31:21;100691.73;;;28.03;45.22
76551;BME280;68768;53.156;18.164;2023-07-31T06:33:51;100690.61;;;28.26;45.53
76551;BME280;68768;53.156;18.164;2023-07-31T06:36:18;100692.30;;;28.52;44.02
76551;BME280;68768;53.156;18.164;2023-07-31T06:38:45;100689.88;;;28.62;43.54
76551;BME280;68768;53.156;18.164;2023-07-31T06:41:12;100693.50;;;28.66;43.53
76551;BME280;68768;53.156;18.164;2023-07-31T06:43:40;100690.42;;;28.66;44.20
76551;BME280;68768;53.156;18.164;2023-07-31T06:46:07;100689.84;;;28.84;43.01
76551;BME280;68768;53.156;18.164;2023-07-31T06:48:34;100694.29;;;28.80;42.79
76551;BME280;68768;53.156;18.164;2023-07-31T06:51:01;100690.12;;;28.64;42.16
76551;BME280;68768;53.156;18.164;2023-07-31T06:53:28;100695.73;;;28.29;43.13
76551;BME280;68768;53.156;18.164;2023-07-31T06:55:55;100688.75;;;28.04;42.76
76551;BME280;68768;53.156;18.164;2023-07-31T06:58:22;100692.96;;;27.91;42.54
76551;BME280;68768;53.156;18.164;2023-07-31T07:00:49;100692.23;;;27.59;42.29
76551;BME280;68768;53.156;18.164;2023-07-31T07:03:20;100696.95;;;27.21;42.65
76551;BME280;68768;53.156;18.164;2023-07-31T07:05:47;100693.61;;;26.85;42.74
76551;BME280;68768;53.156;18.164;2023-07-31T07:08:14;100695.32;;;26.47;43.09
76551;BME280;68768;53.156;18.164;2023-07-31T07:10:41;100694.94;;;26.07;42.85
76551;BME280;68768;53.156;18.164;2023-07-31T07:13:08;100698.06;;;25.67;43.60
76551;BME280;68768;53.156;18.164;2023-07-31T07:15:36;100693.84;;;25.39;44.00
76551;BME280;68768;53.156;18.164;2023-07-31T07:18:03;100695.02;;;25.26;44.18
76551;BME280;68768;53.156;18.164;2023-07-31T07:20:30;100694.86;;;25.09;44.45
76551;BME280;68768;53.156;18.164;2023-07-31T07:22:57;100701.04;;;24.94;44.48
76551;BME280;68768;53.156;18.164;2023-07-31T07:25:24;100703.73;;;24.76;44.48
76551;BME280;68768;53.156;18.164;2023-07-31T07:27:52;100703.73;;;24.58;44.71
76551;BME280;68768;53.156;18.164;2023-07-31T07:30:19;100706.97;;;24.38;44.96
76551;BME280;68768;53.156;18.164;2023-07-31T07:32:46;100712.89;;;24.23;45.48
76551;BME280;68768;53.156;18.164;2023-07-31T07:35:13;100708.52;;;24.08;45.78
76551;BME280;68768;53.156;18.164;2023-07-31T07:37:40;100708.33;;;23.93;45.89
76551;BME280;68768;53.156;18.164;2023-07-31T07:40:08;100708.34;;;23.77;46.39
76551;BME280;68768;53.156;18.164;2023-07-31T07:42:35;100704.77;;;23.69;46.54
76551;BME280;68768;53.156;18.164;2023-07-31T07:45:02;100710.72;;;23.71;46.99
76551;BME280;68768;53.156;18.164;2023-07-31T07:47:29;100708.50;;;23.70;46.92
76551;BME280;68768;53.156;18.164;2023-07-31T07:49:56;100712.02;;;23.69;46.61
76551;BME280;68768;53.156;18.164;2023-07-31T07:52:24;100705.25;;;23.66;46.77
76551;BME280;68768;53.156;18.164;2023-07-31T07:54:51;100705.10;;;23.62;47.18
76551;BME280;68768;53.156;18.164;2023-07-31T07:57:18;100700.42;;;23.73;47.01
76551;BME280;68768;53.156;18.164;2023-07-31T07:59:45;100698.98;;;23.86;47.27
76551;BME280;68768;53.156;18.164;2023-07-31T08:02:12;100700.67;;;23.87;47.33
76551;BME280;68768;53.156;18.164;2023-07-31T08:04:39;100696.77;;;23.85;47.12
76551;BME280;68768;53.156;18.164;2023-07-31T08:07:06;100702.29;;;23.86;47.05
76551;BME280;68768;53.156;18.164;2023-07-31T08:09:33;100705.46;;;23.85;46.60
76551;BME280;68768;53.156;18.164;2023-07-31T08:12:00;100702.52;;;23.79;46.79
76551;BME280;68768;53.156;18.164;2023-07-31T08:14:30;100702.15;;;23.74;46.69
76551;BME280;68768;53.156;18.164;2023-07-31T08:16:57;100698.34;;;23.70;46.81
76551;BME280;68768;53.156;18.164;2023-07-31T08:19:24;100699.41;;;23.63;46.85
76551;BME280;68768;53.156;18.164;2023-07-31T08:21:51;100699.33;;;23.56;46.87
76551;BME280;68768;53.156;18.164;2023-07-31T08:24:18;100696.19;;;23.48;46.63
76551;BME280;68768;53.156;18.164;2023-07-31T08:26:45;100694.35;;;23.42;46.74
76551;BME280;68768;53.156;18.164;2023-07-31T08:29:12;100695.39;;;23.37;46.72
76551;BME280;68768;53.156;18.164;2023-07-31T08:31:39;100696.56;;;23.32;47.01
76551;BME280;68768;53.156;18.164;2023-07-31T08:34:06;100694.84;;;23.25;46.94
76551;BME280;68768;53.156;18.164;2023-07-31T08:36:33;100696.77;;;23.20;47.45
76551;BME280;68768;53.156;18.164;2023-07-31T08:39:00;100691.77;;;23.12;47.73
76551;BME280;68768;53.156;18.164;2023-07-31T08:41:27;100697.45;;;23.05;47.50
76551;BME280;68768;53.156;18.164;2023-07-31T08:43:55;100691.70;;;23.00;47.70
76551;BME280;68768;53.156;18.164;2023-07-31T08:46:24;100687.39;;;23.00;48.12
76551;BME280;68768;53.156;18.164;2023-07-31T08:48:51;100687.73;;;23.02;47.66
76551;BME280;68768;53.156;18.164;2023-07-31T08:51:19;100683.02;;;23.07;47.40
76551;BME280;68768;53.156;18.164;2023-07-31T08:53:47;100677.80;;;23.14;47.08
76551;BME280;68768;53.156;18.164;2023-07-31T08:56:14;100675.36;;;23.27;47.69
76551;BME280;68768;53.156;18.164;2023-07-31T08:58:44;100670.23;;;23.47;47.82
76551;BME280;68768;53.156;18.164;2023-07-31T09:01:12;100671.62;;;23.76;47.89
76551;BME280;68768;53.156;18.164;2023-07-31T09:03:41;100674.91;;;24.05;47.34
76551;BME280;68768;53.156;18.164;2023-07-31T09:06:09;100677.25;;;24.14;46.08
76551;BME280;68768;53.156;18.164;2023-07-31T09:08:37;100672.14;;;24.16;46.44
76551;BME280;68768;53.156;18.164;2023-07-31T09:11:07;100671.72;;;24.29;46.54
76551;BME280;68768;53.156;18.164;2023-07-31T09:13:34;100671.63;;;24.37;46.64
76551;BME280;68768;53.156;18.164;2023-07-31T09:16:01;100669.05;;;24.43;45.93
76551;BME280;68768;53.156;18.164;2023-07-31T09:18:28;100662.84;;;24.46;45.72
76551;BME280;68768;53.156;18.164;2023-07-31T09:21:02;100664.67;;;24.45;46.03
76551;BME280;68768;53.156;18.164;2023-07-31T09:23:43;100660.26;;;24.44;45.78
76551;BME280;68768;53.156;18.164;2023-07-31T09:26:10;100660.20;;;24.39;45.50
76551;BME280;68768;53.156;18.164;2023-07-31T09:28:37;100653.23;;;24.31;45.75
76551;BME280;68768;53.156;18.164;2023-07-31T09:31:04;100648.32;;;24.19;46.09
76551;BME280;68768;53.156;18.164;2023-07-31T09:33:31;100645.48;;;24.15;46.51
76551;BME280;68768;53.156;18.164;2023-07-31T09:35:59;100643.38;;;24.12;46.51
76551;BME280;68768;53.156;18.164;2023-07-31T09:38:27;100644.25;;;24.09;46.55
76551;BME280;68768;53.156;18.164;2023-07-31T09:40:55;100642.54;;;24.06;46.76
76551;BME280;68768;53.156;18.164;2023-07-31T09:43:26;100641.03;;;24.01;46.86
76551;BME280;68768;53.156;18.164;2023-07-31T09:45:57;100637.33;;;23.90;46.73
76551;BME280;68768;53.156;18.164;2023-07-31T09:48:25;100635.13;;;23.79;46.73
76551;BME280;68768;53.156;18.164;2023-07-31T09:50:54;100630.61;;;23.70;46.73
76551;BME280;68768;53.156;18.164;2023-07-31T09:53:29;100628.89;;;23.61;47.15
76551;BME280;68768;53.156;18.164;2023-07-31T09:55:59;100625.46;;;23.49;47.04
76551;BME280;68768;53.156;18.164;2023-07-31T09:58:28;100621.84;;;23.37;47.35
76551;BME280;68768;53.156;18.164;2023-07-31T10:00:58;100618.38;;;23.22;47.36
76551;BME280;68768;53.156;18.164;2023-07-31T10:03:27;100621.98;;;23.05;47.49
76551;BME280;68768;53.156;18.164;2023-07-31T10:05:56;100623.58;;;22.90;47.91
76551;BME280;68768;53.156;18.164;2023-07-31T10:08:27;100639.14;;;22.71;49.36
76551;BME280;68768;53.156;18.164;2023-07-31T10:10:59;100642.59;;;22.43;50.64
76551;BME280;68768;53.156;18.164;2023-07-31T10:13:28;100644.76;;;22.19;51.19
76551;BME280;68768;53.156;18.164;2023-07-31T10:15:59;100653.09;;;21.98;52.53
76551;BME280;68768;53.156;18.164;2023-07-31T10:18:28;100652.48;;;21.73;54.14
76551;BME280;68768;53.156;18.164;2023-07-31T10:20:56;100659.59;;;21.47;56.17
76551;BME280;68768;53.156;18.164;2023-07-31T10:23:24;100645.13;;;21.22;55.82
76551;BME280;68768;53.156;18.164;2023-07-31T10:25:53;100627.27;;;21.02;56.22
76551;BME280;68768;53.156;18.164;2023-07-31T10:28:21;100626.04;;;20.87;55.66
76551;BME280;68768;53.156;18.164;2023-07-31T10:30:49;100626.84;;;20.77;55.96
76551;BME280;68768;53.156;18.164;2023-07-31T10:33:17;100624.07;;;20.69;56.71
76551;BME280;68768;53.156;18.164;2023-07-31T10:35:47;100624.27;;;20.62;56.66
76551;BME280;68768;53.156;18.164;2023-07-31T10:38:14;100619.04;;;20.60;56.98
76551;BME280;68768;53.156;18.164;2023-07-31T10:40:41;100612.30;;;20.61;57.66
76551;BME280;68768;53.156;18.164;2023-07-31T10:43:08;100608.54;;;20.63;58.66
76551;BME280;68768;53.156;18.164;2023-07-31T10:45:39;100597.70;;;20.63;58.98
76551;BME280;68768;53.156;18.164;2023-07-31T10:48:15;100598.02;;;20.70;58.85
76551;BME280;68768;53.156;18.164;2023-07-31T10:50:50;100595.31;;;20.81;59.06
76551;BME280;68768;53.156;18.164;2023-07-31T10:53:25;100588.63;;;20.92;58.79
76551;BME280;68768;53.156;18.164;2023-07-31T10:55:52;100585.45;;;21.06;58.97
76551;BME280;68768;53.156;18.164;2023-07-31T10:58:22;100577.98;;;21.13;58.79
76551;BME280;68768;53.156;18.164;2023-07-31T11:00:49;100575.06;;;21.22;58.70
76551;BME280;68768;53.156;18.164;2023-07-31T11:03:18;100574.90;;;21.30;58.73
76551;BME280;68768;53.156;18.164;2023-07-31T11:06:03;100568.96;;;21.37;58.79
76551;BME280;68768;53.156;18.164;2023-07-31T11:08:32;100559.41;;;21.41;58.28
76551;BME280;68768;53.156;18.164;2023-07-31T11:13:31;100553.00;;;21.42;58.43
76551;BME280;68768;53.156;18.164;2023-07-31T11:15:59;100553.41;;;21.41;58.62
76551;BME280;68768;53.156;18.164;2023-07-31T11:18:27;100552.38;;;21.45;59.25
76551;BME280;68768;53.156;18.164;2023-07-31T11:20:54;100550.09;;;21.46;59.77
76551;BME280;68768;53.156;18.164;2023-07-31T11:23:22;100550.44;;;21.44;59.36
76551;BME280;68768;53.156;18.164;2023-07-31T11:25:49;100549.21;;;21.42;59.22
76551;BME280;68768;53.156;18.164;2023-07-31T11:28:19;100550.92;;;21.37;58.70
76551;BME280;68768;53.156;18.164;2023-07-31T11:30:46;100551.24;;;21.30;58.31
76551;BME280;68768;53.156;18.164;2023-07-31T11:33:14;100550.63;;;21.23;57.43
76551;BME280;68768;53.156;18.164;2023-07-31T11:35:45;100546.27;;;21.16;56.86
76551;BME280;68768;53.156;18.164;2023-07-31T11:38:21;100551.90;;;21.12;56.69
76551;BME280;68768;53.156;18.164;2023-07-31T11:40:50;100549.29;;;21.08;56.87
76551;BME280;68768;53.156;18.164;2023-07-31T11:43:17;100553.80;;;21.05;56.44
76551;BME280;68768;53.156;18.164;2023-07-31T11:45:49;100553.20;;;20.99;56.98
76551;BME280;68768;53.156;18.164;2023-07-31T11:48:31;100558.30;;;20.92;56.77
76551;BME280;68768;53.156;18.164;2023-07-31T11:51:05;100557.30;;;20.87;57.03
76551;BME280;68768;53.156;18.164;2023-07-31T11:53:40;100558.58;;;20.84;57.40
76551;BME280;68768;53.156;18.164;2023-07-31T11:56:10;100553.64;;;20.85;57.48
76551;BME280;68768;53.156;18.164;2023-07-31T11:58:39;100549.12;;;20.91;57.64
76551;BME280;68768;53.156;18.164;2023-07-31T12:01:07;100548.77;;;21.04;57.88
76551;BME280;68768;53.156;18.164;2023-07-31T12:03:35;100544.75;;;21.15;57.43
76551;BME280;68768;53.156;18.164;2023-07-31T12:06:02;100552.00;;;21.24;57.52
76551;BME280;68768;53.156;18.164;2023-07-31T12:08:29;100551.02;;;21.33;57.63
76551;BME280;68768;53.156;18.164;2023-07-31T12:11:03;100553.47;;;21.43;57.87
76551;BME280;68768;53.156;18.164;2023-07-31T12:13:31;100550.54;;;21.45;57.54
76551;BME280;68768;53.156;18.164;2023-07-31T12:16:00;100550.59;;;21.45;57.37
76551;BME280;68768;53.156;18.164;2023-07-31T12:18:30;100549.14;;;21.45;57.47
76551;BME280;68768;53.156;18.164;2023-07-31T12:20:58;100544.31;;;21.42;56.89
76551;BME280;68768;53.156;18.164;2023-07-31T12:23:31;100541.35;;;21.43;57.19
76551;BME280;68768;53.156;18.164;2023-07-31T12:26:05;100538.80;;;21.49;57.45
76551;BME280;68768;53.156;18.164;2023-07-31T12:28:37;100533.54;;;21.60;57.31
76551;BME280;68768;53.156;18.164;2023-07-31T12:31:05;100529.64;;;21.71;57.22
76551;BME280;68768;53.156;18.164;2023-07-31T12:33:36;100534.98;;;21.78;56.98
76551;BME280;68768;53.156;18.164;2023-07-31T12:36:08;100532.20;;;21.81;56.81
76551;BME280;68768;53.156;18.164;2023-07-31T12:38:35;100527.59;;;21.82;56.61
76551;BME280;68768;53.156;18.164;2023-07-31T12:41:03;100529.73;;;21.85;57.05
76551;BME280;68768;53.156;18.164;2023-07-31T12:43:30;100526.48;;;21.90;56.98
76551;BME280;68768;53.156;18.164;2023-07-31T12:45:58;100522.77;;;21.94;56.85
76551;BME280;68768;53.156;18.164;2023-07-31T12:48:25;100524.56;;;21.96;56.76
76551;BME280;68768;53.156;18.164;2023-07-31T12:50:52;100521.42;;;21.97;56.39
76551;BME280;68768;53.156;18.164;2023-07-31T12:53:19;100515.70;;;21.94;56.41